sensor_id;sensor_type;location;lat;lon;timestamp;P1;durP1;ratioP1;P2;durP2;ratioP2
51515;SDS011;37603;55.614;37.326;2023-05-15T00:03:57;9.1;;;6.0;;
51515;SDS011;37603;55.614;37.326;2023-05-15T00:09:56;11.1;;;6.8;;
51515;SDS011;37603;55.614;37.326;2023-05-15T00:15:55;10.6;;;6.9;;
51515;SDS011;37603;55.614;37.326;2023-05-15T00:21:54;9.1;;;6.2;;
51515;SDS011;37603;55.614;37.326;2023-05-15T00:27:53;9.5;;;6.2;;
51515;SDS011;37603;55.614;37.326;2023-05-15T00:33:52;10.5;;;6.5;;
51515;SDS011;37603;55.614;37.326;2023-05-15T00:39:51;9.1;;;6.5;;
51515;SDS011;37603;55.614;37.326;2023-05-15T00:45:51;11.2;;;7.0;;
51515;SDS011;37603;55.614;37.326;2023-05-15T00:51:49;10.8;;;7.1;;
51515;SDS011;37603;55.614;37.326;2023-05-15T00:57:48;9.8;;;6.5;;
51515;SDS011;37603;55.614;37.326;2023-05-15T01:03:47;8.1;;;6.6;;
51515;SDS011;37603;55.614;37.326;2023-05-15T01:09:46;11.6;;;6.8;;
51515;SDS011;37603;55.614;37.326;2023-05-15T01:15:45;11.8;;;6.4;;
51515;SDS011;37603;55.614;37.326;2023-05-15T01:21:52;11.4;;;6.9;;
51515;SDS011;37603;55.614;37.326;2023-05-15T01:27:44;12.2;;;7.1;;
51515;SDS011;37603;55.614;37.326;2023-05-15T01:33:43;13.6;;;7.2;;
51515;SDS011;37603;55.614;37.326;2023-05-15T01:39:41;8.7;;;6.6;;
51515;SDS011;37603;55.614;37.326;2023-05-15T01:45:40;11.9;;;6.9;;
51515;SDS011;37603;55.614;37.326;2023-05-15T01:51:39;11.0;;;7.2;;
51515;SDS011;37603;55.614;37.326;2023-05-15T01:57:38;10.3;;;6.9;;
51515;SDS011;37603;55.614;37.326;2023-05-15T02:03:37;12.6;;;7.8;;
51515;SDS011;37603;55.614;37.326;2023-05-15T02:09:36;10.9;;;7.0;;
51515;SDS011;37603;55.614;37.326;2023-05-15T02:15:35;11.6;;;7.4;;
51515;SDS011;37603;55.614;37.326;2023-05-15T02:21:34;12.5;;;8.1;;
51515;SDS011;37603;55.614;37.326;2023-05-15T02:27:34;11.4;;;7.6;;
51515;SDS011;37603;55.614;37.326;2023-05-15T02:33:34;10.2;;;7.4;;
51515;SDS011;37603;55.614;37.326;2023-05-15T02:39:31;12.9;;;7.9;;
51515;SDS011;37603;55.614;37.326;2023-05-15T02:45:30;11.3;;;7.4;;
51515;SDS011;37603;55.614;37.326;2023-05-15T02:51:29;11.2;;;7.4;;
51515;SDS011;37603;55.614;37.326;2023-05-15T02:57:28;13.7;;;8.2;;
51515;SDS011;37603;55.614;37.326;2023-05-15T03:03:27;12.4;;;8.0;;
51515;SDS011;37603;55.614;37.326;2023-05-15T03:09:26;12.8;;;8.8;;
51515;SDS011;37603;55.614;37.326;2023-05-15T03:15:25;13.2;;;9.0;;
51515;SDS011;37603;55.614;37.326;2023-05-15T03:21:24;13.4;;;8.2;;
51515;SDS011;37603;55.614;37.326;2023-05-15T03:27:23;15.9;;;9.1;;
51515;SDS011;37603;55.614;37.326;2023-05-15T03:33:22;13.2;;;9.4;;
51515;SDS011;37603;55.614;37.326;2023-05-15T03:39:21;16.3;;;9.8;;
51515;SDS011;37603;55.614;37.326;2023-05-15T03:45:20;14.9;;;9.4;;
51515;SDS011;37603;55.614;37.326;2023-05-15T03:51:19;14.5;;;9.1;;
51515;SDS011;37603;55.614;37.326;2023-05-15T03:57:18;13.4;;;8.4;;
51515;SDS011;37603;55.614;37.326;2023-05-15T04:03:17;13.8;;;8.3;;
51515;SDS011;37603;55.614;37.326;2023-05-15T04:09:16;13.0;;;7.3;;
51515;SDS011;37603;55.614;37.326;2023-05-15T04:15:17;11.7;;;6.9;;
51515;SDS011;37603;55.614;37.326;2023-05-15T04:21:15;12.8;;;6.5;;
51515;SDS011;37603;55.614;37.326;2023-05-15T04:27:14;10.1;;;6.1;;
51515;SDS011;37603;55.614;37.326;2023-05-15T04:33:13;9.6;;;5.2;;
51515;SDS011;37603;55.614;37.326;2023-05-15T04:39:12;8.1;;;3.8;;
51515;SDS011;37603;55.614;37.326;2023-05-15T04:45:12;5.9;;;3.7;;
51515;SDS011;37603;55.614;37.326;2023-05-15T04:51:11;6.4;;;3.4;;
51515;SDS011;37603;55.614;37.326;2023-05-15T04:57:10;4.6;;;2.1;;
51515;SDS011;37603;55.614;37.326;2023-05-15T05:03:09;5.3;;;2.5;;
51515;SDS011;37603;55.614;37.326;2023-05-15T05:09:09;4.6;;;2.1;;
51515;SDS011;37603;55.614;37.326;2023-05-15T05:15:08;4.0;;;1.9;;
51515;SDS011;37603;55.614;37.326;2023-05-15T05:21:07;3.0;;;1.6;;
51515;SDS011;37603;55.614;37.326;2023-05-15T05:27:07;4.7;;;2.1;;
51515;SDS011;37603;55.614;37.326;2023-05-15T05:33:06;4.3;;;1.7;;
51515;SDS011;37603;55.614;37.326;2023-05-15T05:39:06;2.7;;;1.6;;
51515;SDS011;37603;55.614;37.326;2023-05-15T05:45:06;4.7;;;2.1;;
51515;SDS011;37603;55.614;37.326;2023-05-15T05:51:05;2.5;;;1.5;;
51515;SDS011;37603;55.614;37.326;2023-05-15T05:57:04;2.7;;;2.1;;
51515;SDS011;37603;55.614;37.326;2023-05-15T06:03:04;5.5;;;2.2;;
51515;SDS011;37603;55.614;37.326;2023-05-15T06:09:04;3.3;;;1.8;;
51515;SDS011;37603;55.614;37.326;2023-05-15T06:15:04;4.3;;;1.7;;
51515;SDS011;37603;55.614;37.326;2023-05-15T06:21:03;3.3;;;1.4;;
51515;SDS011;37603;55.614;37.326;2023-05-15T06:27:03;2.0;;;1.6;;
51515;SDS011;37603;55.614;37.326;2023-05-15T06:33:02;2.3;;;1.3;;
51515;SDS011;37603;55.614;37.326;2023-05-15T06:39:02;2.5;;;1.2;;
51515;SDS011;37603;55.614;37.326;2023-05-15T06:45:02;2.9;;;1.2;;
51515;SDS011;37603;55.614;37.326;2023-05-15T06:51:01;2.6;;;1.1;;
51515;SDS011;37603;55.614;37.326;2023-05-15T06:57:01;4.0;;;1.5;;
51515;SDS011;37603;55.614;37.326;2023-05-15T07:03:01;2.5;;;1.7;;
51515;SDS011;37603;55.614;37.326;2023-05-15T07:09:00;3.6;;;1.5;;
51515;SDS011;37603;55.614;37.326;2023-05-15T07:15:00;5.0;;;1.9;;
51515;SDS011;37603;55.614;37.326;2023-05-15T07:20:59;3.1;;;1.4;;
51515;SDS011;37603;55.614;37.326;2023-05-15T07:26:59;2.6;;;1.3;;
51515;SDS011;37603;55.614;37.326;2023-05-15T07:32:59;3.1;;;1.3;;
51515;SDS011;37603;55.614;37.326;2023-05-15T07:38:59;2.5;;;1.2;;
51515;SDS011;37603;55.614;37.326;2023-05-15T07:44:58;3.1;;;1.5;;
51515;SDS011;37603;55.614;37.326;2023-05-15T07:50:58;5.3;;;1.4;;
51515;SDS011;37603;55.614;37.326;2023-05-15T07:56:58;4.3;;;1.4;;
51515;SDS011;37603;55.614;37.326;2023-05-15T08:08:57;4.6;;;1.6;;
51515;SDS011;37603;55.614;37.326;2023-05-15T08:14:57;2.9;;;1.7;;
51515;SDS011;37603;55.614;37.326;2023-05-15T08:20:57;5.6;;;1.7;;
51515;SDS011;37603;55.614;37.326;2023-05-15T08:26:57;4.6;;;1.5;;
51515;SDS011;37603;55.614;37.326;2023-05-15T08:32:56;2.4;;;1.3;;
51515;SDS011;37603;55.614;37.326;2023-05-15T08:38:56;5.7;;;1.7;;
51515;SDS011;37603;55.614;37.326;2023-05-15T08:44:56;4.1;;;1.5;;
51515;SDS011;37603;55.614;37.326;2023-05-15T08:50:56;3.0;;;1.3;;
51515;SDS011;37603;55.614;37.326;2023-05-15T08:56:55;3.5;;;1.6;;
51515;SDS011;37603;55.614;37.326;2023-05-15T09:08:55;3.7;;;1.4;;
51515;SDS011;37603;55.614;37.326;2023-05-15T09:20:55;3.0;;;1.3;;
51515;SDS011;37603;55.614;37.326;2023-05-15T09:27:02;3.3;;;1.4;;
51515;SDS011;37603;55.614;37.326;2023-05-15T09:32:54;4.5;;;1.5;;
51515;SDS011;37603;55.614;37.326;2023-05-15T09:38:57;3.9;;;1.7;;
51515;SDS011;37603;55.614;37.326;2023-05-15T09:44:54;4.4;;;1.5;;
51515;SDS011;37603;55.614;37.326;2023-05-15T09:50:53;5.9;;;1.9;;
51515;SDS011;37603;55.614;37.326;2023-05-15T09:56:53;5.7;;;1.7;;
51515;SDS011;37603;55.614;37.326;2023-05-15T10:02:53;3.0;;;1.5;;
51515;SDS011;37603;55.614;37.326;2023-05-15T10:08:53;4.0;;;1.7;;
51515;SDS011;37603;55.614;37.326;2023-05-15T10:14:52;3.9;;;1.8;;
51515;SDS011;37603;55.614;37.326;2023-05-15T10:20:53;4.9;;;1.8;;
51515;SDS011;37603;55.614;37.326;2023-05-15T10:26:52;3.8;;;1.6;;
51515;SDS011;37603;55.614;37.326;2023-05-15T10:32:52;2.9;;;1.7;;
51515;SDS011;37603;55.614;37.326;2023-05-15T10:38:51;6.6;;;1.7;;
51515;SDS011;37603;55.614;37.326;2023-05-15T10:44:51;4.0;;;1.7;;
51515;SDS011;37603;55.614;37.326;2023-05-15T10:50:51;9.0;;;2.0;;
51515;SDS011;37603;55.614;37.326;2023-05-15T10:56:51;2.8;;;1.7;;
51515;SDS011;37603;55.614;37.326;2023-05-15T11:02:50;4.6;;;1.7;;
51515;SDS011;37603;55.614;37.326;2023-05-15T11:08:50;3.7;;;2.0;;
51515;SDS011;37603;55.614;37.326;2023-05-15T11:26:50;4.2;;;1.8;;
51515;SDS011;37603;55.614;37.326;2023-05-15T11:32:50;6.5;;;3.4;;
51515;SDS011;37603;55.614;37.326;2023-05-15T11:38:49;5.4;;;2.6;;
51515;SDS011;37603;55.614;37.326;2023-05-15T11:50:49;4.0;;;2.2;;
51515;SDS011;37603;55.614;37.326;2023-05-15T11:56:48;4.9;;;2.3;;
51515;SDS011;37603;55.614;37.326;2023-05-15T12:02:48;5.1;;;2.3;;
51515;SDS011;37603;55.614;37.326;2023-05-15T12:08:49;3.1;;;1.6;;
51515;SDS011;37603;55.614;37.326;2023-05-15T12:14:47;2.7;;;1.7;;
51515;SDS011;37603;55.614;37.326;2023-05-15T12:20:47;3.0;;;1.7;;
51515;SDS011;37603;55.614;37.326;2023-05-15T12:26:47;2.9;;;1.5;;
51515;SDS011;37603;55.614;37.326;2023-05-15T12:32:46;4.4;;;1.4;;
51515;SDS011;37603;55.614;37.326;2023-05-15T12:38:47;4.1;;;1.4;;
51515;SDS011;37603;55.614;37.326;2023-05-15T12:44:48;5.0;;;1.4;;
51515;SDS011;37603;55.614;37.326;2023-05-15T12:50:46;3.7;;;1.3;;
51515;SDS011;37603;55.614;37.326;2023-05-15T12:56:46;4.6;;;1.3;;
51515;SDS011;37603;55.614;37.326;2023-05-15T13:14:46;1.7;;;1.1;;
51515;SDS011;37603;55.614;37.326;2023-05-15T13:20:46;4.7;;;1.9;;
51515;SDS011;37603;55.614;37.326;2023-05-15T13:26:45;5.1;;;1.9;;
51515;SDS011;37603;55.614;37.326;2023-05-15T13:32:44;3.2;;;1.5;;
51515;SDS011;37603;55.614;37.326;2023-05-15T13:38:44;5.7;;;2.4;;
51515;SDS011;37603;55.614;37.326;2023-05-15T13:44:44;4.0;;;2.0;;
51515;SDS011;37603;55.614;37.326;2023-05-15T13:50:44;4.5;;;1.5;;
51515;SDS011;37603;55.614;37.326;2023-05-15T13:56:43;3.0;;;1.5;;
51515;SDS011;37603;55.614;37.326;2023-05-15T14:02:43;5.8;;;1.6;;
51515;SDS011;37603;55.614;37.326;2023-05-15T14:08:43;3.7;;;1.6;;
51515;SDS011;37603;55.614;37.326;2023-05-15T14:14:44;5.1;;;1.7;;
51515;SDS011;37603;55.614;37.326;2023-05-15T14:20:43;3.5;;;1.9;;
51515;SDS011;37603;55.614;37.326;2023-05-15T14:26:43;8.9;;;2.6;;
51515;SDS011;37603;55.614;37.326;2023-05-15T14:32:42;5.8;;;2.7;;
51515;SDS011;37603;55.614;37.326;2023-05-15T14:38:42;5.2;;;1.8;;
51515;SDS011;37603;55.614;37.326;2023-05-15T14:44:42;5.5;;;1.9;;
51515;SDS011;37603;55.614;37.326;2023-05-15T14:50:42;3.3;;;1.6;;
51515;SDS011;37603;55.614;37.326;2023-05-15T14:56:42;4.3;;;1.6;;
51515;SDS011;37603;55.614;37.326;2023-05-15T15:02:42;3.9;;;1.8;;
51515;SDS011;37603;55.614;37.326;2023-05-15T15:08:41;5.9;;;1.8;;
51515;SDS011;37603;55.614;37.326;2023-05-15T15:14:41;5.4;;;1.7;;
51515;SDS011;37603;55.614;37.326;2023-05-15T15:20:41;5.8;;;2.2;;
51515;SDS011;37603;55.614;37.326;2023-05-15T15:26:41;5.7;;;1.8;;
51515;SDS011;37603;55.614;37.326;2023-05-15T15:32:41;6.4;;;2.0;;
51515;SDS011;37603;55.614;37.326;2023-05-15T15:38:40;3.4;;;1.5;;
51515;SDS011;37603;55.614;37.326;2023-05-15T15:44:40;4.2;;;1.8;;
51515;SDS011;37603;55.614;37.326;2023-05-15T15:50:40;6.3;;;1.9;;
51515;SDS011;37603;55.614;37.326;2023-05-15T15:56:39;3.5;;;1.7;;
51515;SDS011;37603;55.614;37.326;2023-05-15T16:02:39;6.3;;;2.0;;
51515;SDS011;37603;55.614;37.326;2023-05-15T16:08:39;7.1;;;2.5;;
51515;SDS011;37603;55.614;37.326;2023-05-15T16:14:39;6.7;;;2.2;;
51515;SDS011;37603;55.614;37.326;2023-05-15T16:20:38;7.7;;;1.6;;
51515;SDS011;37603;55.614;37.326;2023-05-15T16:26:38;7.5;;;2.1;;
51515;SDS011;37603;55.614;37.326;2023-05-15T16:32:38;4.9;;;2.0;;
51515;SDS011;37603;55.614;37.326;2023-05-15T16:38:38;8.3;;;3.4;;
51515;SDS011;37603;55.614;37.326;2023-05-15T16:44:37;6.0;;;1.9;;
51515;SDS011;37603;55.614;37.326;2023-05-15T16:50:37;6.4;;;2.2;;
51515;SDS011;37603;55.614;37.326;2023-05-15T16:56:37;5.8;;;2.5;;
51515;SDS011;37603;55.614;37.326;2023-05-15T17:02:36;6.1;;;2.1;;
51515;SDS011;37603;55.614;37.326;2023-05-15T17:08:36;8.0;;;3.1;;
51515;SDS011;37603;55.614;37.326;2023-05-15T17:14:35;6.9;;;3.0;;
51515;SDS011;37603;55.614;37.326;2023-05-15T17:20:35;7.6;;;2.5;;
51515;SDS011;37603;55.614;37.326;2023-05-15T17:26:35;13.9;;;8.4;;
51515;SDS011;37603;55.614;37.326;2023-05-15T17:32:34;19.4;;;9.8;;
51515;SDS011;37603;55.614;37.326;2023-05-15T17:38:34;21.0;;;14.8;;
51515;SDS011;37603;55.614;37.326;2023-05-15T17:44:33;16.4;;;10.0;;
51515;SDS011;37603;55.614;37.326;2023-05-15T17:50:33;17.4;;;10.5;;
51515;SDS011;37603;55.614;37.326;2023-05-15T17:56:32;15.8;;;9.3;;
51515;SDS011;37603;55.614;37.326;2023-05-15T18:02:32;19.2;;;12.6;;
51515;SDS011;37603;55.614;37.326;2023-05-15T18:08:31;21.6;;;12.1;;
51515;SDS011;37603;55.614;37.326;2023-05-15T18:14:31;20.0;;;11.3;;
51515;SDS011;37603;55.614;37.326;2023-05-15T18:20:30;15.6;;;9.1;;
51515;SDS011;37603;55.614;37.326;2023-05-15T18:26:30;23.1;;;11.0;;
51515;SDS011;37603;55.614;37.326;2023-05-15T18:32:29;15.8;;;10.6;;
51515;SDS011;37603;55.614;37.326;2023-05-15T18:38:29;18.1;;;9.4;;
51515;SDS011;37603;55.614;37.326;2023-05-15T18:44:28;14.0;;;8.9;;
51515;SDS011;37603;55.614;37.326;2023-05-15T18:50:27;23.2;;;9.8;;
51515;SDS011;37603;55.614;37.326;2023-05-15T18:56:27;19.6;;;11.7;;
51515;SDS011;37603;55.614;37.326;2023-05-15T19:02:26;28.7;;;14.8;;
51515;SDS011;37603;55.614;37.326;2023-05-15T19:08:26;28.8;;;15.2;;
51515;SDS011;37603;55.614;37.326;2023-05-15T19:14:25;23.3;;;14.8;;
51515;SDS011;37603;55.614;37.326;2023-05-15T19:20:24;36.7;;;19.2;;
51515;SDS011;37603;55.614;37.326;2023-05-15T19:26:24;26.1;;;13.4;;
51515;SDS011;37603;55.614;37.326;2023-05-15T19:32:24;24.0;;;13.6;;
51515;SDS011;37603;55.614;37.326;2023-05-15T19:38:23;18.3;;;12.2;;
51515;SDS011;37603;55.614;37.326;2023-05-15T19:44:22;20.9;;;10.7;;
51515;SDS011;37603;55.614;37.326;2023-05-15T19:50:21;20.3;;;11.4;;
51515;SDS011;37603;55.614;37.326;2023-05-15T19:56:21;17.3;;;8.4;;
51515;SDS011;37603;55.614;37.326;2023-05-15T20:02:20;18.1;;;9.6;;
51515;SDS011;37603;55.614;37.326;2023-05-15T20:08:19;16.0;;;9.3;;
51515;SDS011;37603;55.614;37.326;2023-05-15T20:14:19;17.1;;;11.2;;
51515;SDS011;37603;55.614;37.326;2023-05-15T20:20:18;16.8;;;12.8;;
51515;SDS011;37603;55.614;37.326;2023-05-15T20:26:17;20.9;;;12.8;;
51515;SDS011;37603;55.614;37.326;2023-05-15T20:32:17;21.9;;;14.4;;
51515;SDS011;37603;55.614;37.326;2023-05-15T20:38:16;24.1;;;16.6;;
51515;SDS011;37603;55.614;37.326;2023-05-15T20:44:15;20.7;;;14.3;;
51515;SDS011;37603;55.614;37.326;2023-05-15T20:50:14;22.0;;;13.3;;
51515;SDS011;37603;55.614;37.326;2023-05-15T20:56:14;25.0;;;12.8;;
51515;SDS011;37603;55.614;37.326;2023-05-15T21:02:13;22.8;;;13.9;;
51515;SDS011;37603;55.614;37.326;2023-05-15T21:08:12;24.5;;;14.2;;
51515;SDS011;37603;55.614;37.326;2023-05-15T21:14:12;29.2;;;20.6;;
51515;SDS011;37603;55.614;37.326;2023-05-15T21:20:11;27.6;;;17.2;;
51515;SDS011;37603;55.614;37.326;2023-05-15T21:26:10;24.3;;;17.1;;
51515;SDS011;37603;55.614;37.326;2023-05-15T21:32:09;28.0;;;16.0;;
51515;SDS011;37603;55.614;37.326;2023-05-15T21:38:09;27.4;;;15.9;;
51515;SDS011;37603;55.614;37.326;2023-05-15T21:44:08;26.6;;;14.6;;
51515;SDS011;37603;55.614;37.326;2023-05-15T21:50:07;22.0;;;12.9;;
51515;SDS011;37603;55.614;37.326;2023-05-15T21:56:06;19.1;;;11.2;;
51515;SDS011;37603;55.614;37.326;2023-05-15T22:02:05;18.8;;;11.2;;
51515;SDS011;37603;55.614;37.326;2023-05-15T22:08:05;19.0;;;11.1;;
51515;SDS011;37603;55.614;37.326;2023-05-15T22:14:04;22.9;;;11.3;;
51515;SDS011;37603;55.614;37.326;2023-05-15T22:20:03;21.1;;;12.2;;
51515;SDS011;37603;55.614;37.326;2023-05-15T22:26:02;20.8;;;11.3;;
51515;SDS011;37603;55.614;37.326;2023-05-15T22:32:02;23.9;;;13.8;;
51515;SDS011;37603;55.614;37.326;2023-05-15T22:38:01;18.5;;;11.2;;
51515;SDS011;37603;55.614;37.326;2023-05-15T22:44:00;19.7;;;11.6;;
51515;SDS011;37603;55.614;37.326;2023-05-15T22:49:59;21.9;;;12.0;;
51515;SDS011;37603;55.614;37.326;2023-05-15T22:55:58;16.2;;;10.0;;
51515;SDS011;37603;55.614;37.326;2023-05-15T23:01:57;18.5;;;10.8;;
51515;SDS011;37603;55.614;37.326;2023-05-15T23:07:57;16.4;;;9.8;;
51515;SDS011;37603;55.614;37.326;2023-05-15T23:13:56;14.2;;;9.1;;
51515;SDS011;37603;55.614;37.326;2023-05-15T23:19:55;15.6;;;8.5;;
51515;SDS011;37603;55.614;37.326;2023-05-15T23:25:54;16.0;;;8.9;;
51515;SDS011;37603;55.614;37.326;2023-05-15T23:31:54;15.9;;;8.2;;
51515;SDS011;37603;55.614;37.326;2023-05-15T23:37:52;15.0;;;8.1;;
51515;SDS011;37603;55.614;37.326;2023-05-15T23:43:52;16.0;;;8.3;;
51515;SDS011;37603;55.614;37.326;2023-05-15T23:49:51;13.6;;;8.3;;
51515;SDS011;37603;55.614;37.326;2023-05-15T23:55:50;14.7;;;8.5;;
